createdAt,value
2023-03-06T00:02:57.988Z,3.27
2023-03-06T00:08:00.210Z,3.45
2023-03-06T00:13:05.629Z,3.46
2023-03-06T00:18:08.475Z,3.26
2023-03-06T00:23:11.063Z,3.31
2023-03-06T00:28:15.790Z,3.38
2023-03-06T00:33:18.133Z,3.32
2023-03-06T00:38:20.282Z,3.39
2023-03-06T00:43:22.347Z,3.44
2023-03-06T00:48:24.496Z,3.31
2023-03-06T00:53:26.657Z,3.41
2023-03-06T00:58:28.753Z,3.41
2023-03-06T01:03:30.870Z,3.46
2023-03-06T01:08:33.098Z,3.42
2023-03-06T01:13:35.371Z,3.47
2023-03-06T01:18:37.853Z,3.53
2023-03-06T01:23:40.379Z,3.39
2023-03-06T01:28:42.517Z,3.43
2023-03-06T01:33:45.406Z,3.39
2023-03-06T01:38:47.531Z,3.45
2023-03-06T01:43:49.927Z,3.48
2023-03-06T01:49:00.994Z,3.52
2023-03-06T01:54:08.997Z,3.48
2023-03-06T01:59:11.319Z,3.55
2023-03-06T02:04:14.105Z,3.68
2023-03-06T02:09:16.623Z,3.66
2023-03-06T02:14:18.775Z,3.60
2023-03-06T02:19:33.427Z,3.51
2023-03-06T02:24:58.483Z,3.75
2023-03-06T02:30:00.794Z,3.72
2023-03-06T02:35:04.011Z,3.62
2023-03-06T02:40:14.585Z,3.66
2023-03-06T02:45:23.765Z,3.53
2023-03-06T02:50:25.881Z,3.49
2023-03-06T02:55:27.949Z,3.63
2023-03-06T03:00:30.956Z,3.76
2023-03-06T03:05:33.306Z,3.73
2023-03-06T03:10:35.405Z,3.61
2023-03-06T03:15:37.553Z,3.61
2023-03-06T03:20:43.276Z,3.67
2023-03-06T03:25:45.414Z,3.63
2023-03-06T03:30:47.626Z,3.68
2023-03-06T03:35:57.277Z,3.76
2023-03-06T03:41:01.650Z,3.75
2023-03-06T03:46:03.980Z,3.77
2023-03-06T03:51:12.204Z,3.75
2023-03-06T03:56:14.367Z,3.77
2023-03-06T04:01:16.473Z,3.75
2023-03-06T04:06:19.083Z,3.86
2023-03-06T04:11:21.228Z,3.89
2023-03-06T04:16:23.510Z,3.79
2023-03-06T04:21:25.987Z,3.75
2023-03-06T04:26:28.108Z,3.73
2023-03-06T04:31:30.369Z,3.77
2023-03-06T04:36:34.441Z,3.71
2023-03-06T04:41:36.598Z,3.68
2023-03-06T04:46:38.921Z,3.75
2023-03-06T04:51:41.125Z,3.72
2023-03-06T04:56:43.229Z,3.77
2023-03-06T05:01:45.420Z,3.82
2023-03-06T05:06:47.570Z,3.75
2023-03-06T05:11:49.658Z,3.64
2023-03-06T05:16:51.744Z,3.59
2023-03-06T05:21:53.880Z,3.70
2023-03-06T05:26:56.054Z,3.67
2023-03-06T05:31:58.992Z,3.86
2023-03-06T05:37:01.822Z,3.99
2023-03-06T05:42:04.186Z,3.94
2023-03-06T05:47:06.382Z,4.01
2023-03-06T05:52:09.648Z,3.83
2023-03-06T05:57:11.973Z,3.90
2023-03-06T06:02:15.405Z,3.82
2023-03-06T06:07:17.744Z,3.72
2023-03-06T06:12:20.473Z,3.86
2023-03-06T06:17:22.772Z,3.89
2023-03-06T06:22:30.945Z,3.95
2023-03-06T06:27:33.149Z,3.89
2023-03-06T06:32:36.321Z,3.92
2023-03-06T06:37:38.542Z,3.93
2023-03-06T06:42:40.900Z,3.79
2023-03-06T06:47:43.622Z,3.76
2023-03-06T06:52:45.891Z,3.79
2023-03-06T06:57:47.981Z,3.87
2023-03-06T07:02:51.279Z,4.06
2023-03-06T07:07:53.394Z,4.12
2023-03-06T07:12:56.812Z,4.25
2023-03-06T07:18:00.745Z,4.41
2023-03-06T07:23:03.891Z,4.50
2023-03-06T07:28:06.112Z,4.54
2023-03-06T07:33:08.824Z,4.59
2023-03-06T07:38:11.534Z,4.79
2023-03-06T07:43:19.512Z,4.73
2023-03-06T07:48:21.993Z,4.95
2023-03-06T07:53:24.778Z,4.98
2023-03-06T07:58:26.940Z,4.88
2023-03-06T08:03:29.164Z,5.00
2023-03-06T08:08:31.312Z,4.83
2023-03-06T08:13:33.805Z,4.60
2023-03-06T08:18:39.615Z,4.65
2023-03-06T08:23:43.067Z,4.65
2023-03-06T08:28:47.649Z,4.50
2023-03-06T08:33:49.741Z,4.90
2023-03-06T08:38:52.453Z,4.98
2023-03-06T08:43:54.651Z,5.32
2023-03-06T08:48:57.156Z,5.87
2023-03-06T08:53:59.562Z,6.35
2023-03-06T08:59:03.897Z,6.76
2023-03-06T09:04:09.235Z,6.73
2023-03-06T09:09:13.271Z,7.01
2023-03-06T09:14:15.384Z,7.59
2023-03-06T09:19:17.841Z,8.07
2023-03-06T09:24:20.102Z,9.44
2023-03-06T09:29:22.224Z,9.54
2023-03-06T09:34:24.416Z,9.63
2023-03-06T09:39:27.333Z,10.57
2023-03-06T09:44:32.430Z,12.06
2023-03-06T09:49:48.364Z,13.47
2023-03-06T09:54:57.282Z,14.78
2023-03-06T10:00:05.727Z,13.98
2023-03-06T10:05:15.495Z,13.25
2023-03-06T10:10:24.094Z,13.29
2023-03-06T10:15:32.703Z,11.81
2023-03-06T10:20:41.319Z,10.37
2023-03-06T10:26:02.347Z,10.02
2023-03-06T10:31:25.025Z,9.99
2023-03-06T10:36:28.720Z,8.73
2023-03-06T10:41:35.810Z,7.99
2023-03-06T10:46:44.529Z,7.45
2023-03-06T10:52:21.699Z,7.38
2023-03-06T10:57:31.363Z,7.28
2023-03-06T11:02:41.023Z,7.16
2023-03-06T11:08:00.267Z,7.67
2023-03-06T11:13:09.009Z,7.88
2023-03-06T11:18:11.081Z,8.19
2023-03-06T11:23:18.038Z,8.00
2023-03-06T11:28:40.863Z,8.16
2023-03-06T11:33:48.911Z,8.04
2023-03-06T11:38:53.327Z,8.55
2023-03-06T11:44:17.947Z,8.71
2023-03-06T11:49:27.642Z,8.70
2023-03-06T11:54:30.033Z,8.10
2023-03-06T11:59:55.809Z,8.02
2023-03-06T12:05:22.667Z,7.83
2023-03-06T12:10:51.734Z,7.86
2023-03-06T12:15:54.357Z,8.06
2023-03-06T12:21:18.314Z,8.21
2023-03-06T12:26:51.449Z,8.22
2023-03-06T12:32:03.541Z,8.32
2023-03-06T12:37:20.855Z,8.32
2023-03-06T12:42:25.926Z,8.03
2023-03-06T12:47:31.516Z,8.30
2023-03-06T12:52:34.703Z,8.15
2023-03-06T12:57:36.832Z,7.95
2023-03-06T13:03:14.563Z,7.89
2023-03-06T13:08:38.222Z,7.92
2023-03-06T13:13:45.780Z,7.69
2023-03-06T13:19:00.843Z,7.71
2023-03-06T13:24:06.306Z,7.73
2023-03-06T13:29:36.425Z,7.75
2023-03-06T13:34:40.486Z,7.73
2023-03-06T13:40:15.243Z,7.92
2023-03-06T13:45:27.467Z,8.25
2023-03-06T13:50:37.956Z,8.35
2023-03-06T13:55:58.718Z,8.46
2023-03-06T14:01:27.940Z,8.30
2023-03-06T14:06:36.366Z,8.58
2023-03-06T14:11:50.482Z,8.78
2023-03-06T14:16:53.687Z,8.51
2023-03-06T14:21:57.702Z,8.72
2023-03-06T14:27:00.155Z,8.41
2023-03-06T14:32:02.819Z,8.41
2023-03-06T14:37:19.124Z,8.24
2023-03-06T14:42:25.176Z,7.93
2023-03-06T14:47:33.273Z,7.61
2023-03-06T14:52:36.431Z,7.59
2023-03-06T14:57:38.734Z,7.23
2023-03-06T15:02:41.185Z,7.01
2023-03-06T15:07:43.986Z,6.86
2023-03-06T15:12:50.812Z,6.88
2023-03-06T15:17:53.522Z,6.92
2023-03-06T15:22:55.661Z,6.82
2023-03-06T15:27:59.193Z,6.68
2023-03-06T15:33:18.502Z,6.59
2023-03-06T15:38:37.042Z,6.44
2023-03-06T15:43:41.000Z,6.32
2023-03-06T15:49:04.258Z,6.23
2023-03-06T15:54:12.196Z,6.03
2023-03-06T15:59:25.998Z,5.95
2023-03-06T16:04:28.156Z,5.85
2023-03-06T16:09:30.278Z,5.91
2023-03-06T16:14:32.568Z,5.74
2023-03-06T16:19:34.780Z,5.61
2023-03-06T16:24:37.295Z,5.52
2023-03-06T16:29:40.071Z,5.26
2023-03-06T16:34:42.175Z,5.32
2023-03-06T16:39:44.781Z,5.23
2023-03-06T16:44:47.031Z,5.26
2023-03-06T16:49:49.900Z,5.41
2023-03-06T16:54:52.110Z,5.25
2023-03-06T16:59:54.195Z,5.37
2023-03-06T17:04:56.341Z,5.35
2023-03-06T17:09:58.445Z,5.37
2023-03-06T17:15:03.078Z,5.25
2023-03-06T17:20:08.119Z,5.21
2023-03-06T17:25:10.566Z,5.18
2023-03-06T17:30:16.306Z,5.13
2023-03-06T17:35:18.933Z,5.00
2023-03-06T17:40:21.054Z,4.96
2023-03-06T17:45:23.591Z,4.89
2023-03-06T17:50:25.664Z,4.75
2023-03-06T17:55:28.973Z,4.76
2023-03-06T18:00:31.178Z,4.62
2023-03-06T18:05:33.327Z,4.58
2023-03-06T18:10:38.231Z,4.52
2023-03-06T18:15:40.923Z,4.57
2023-03-06T18:20:44.712Z,4.38
2023-03-06T18:25:48.777Z,4.51
2023-03-06T18:30:50.911Z,4.46
2023-03-06T18:35:53.619Z,4.53
2023-03-06T18:40:55.800Z,4.70
2023-03-06T18:45:58.644Z,4.78
2023-03-06T18:51:09.271Z,4.64
2023-03-06T18:56:22.030Z,4.62
2023-03-06T19:01:30.871Z,4.65
2023-03-06T19:06:33.290Z,4.41
2023-03-06T19:11:38.195Z,4.49
2023-03-06T19:16:40.881Z,4.48
2023-03-06T19:21:45.464Z,4.25
2023-03-06T19:26:47.679Z,4.14
2023-03-06T19:31:52.455Z,4.11
2023-03-06T19:36:55.079Z,4.01
2023-03-06T19:41:57.316Z,4.05
2023-03-06T19:46:59.545Z,4.38
2023-03-06T19:52:02.132Z,4.71
2023-03-06T19:57:04.282Z,4.58
2023-03-06T20:02:06.686Z,4.30
2023-03-06T20:07:08.906Z,4.03
2023-03-06T20:12:11.105Z,3.91
2023-03-06T20:17:13.295Z,3.73
2023-03-06T20:22:15.591Z,3.70
2023-03-06T20:27:17.830Z,3.75
2023-03-06T20:32:20.068Z,3.79
2023-03-06T20:37:22.227Z,3.80
2023-03-06T20:42:24.350Z,3.70
2023-03-06T20:47:27.010Z,3.61
2023-03-06T20:52:29.257Z,3.50
2023-03-06T20:57:31.366Z,3.51
2023-03-06T21:02:33.568Z,3.74
2023-03-06T21:07:36.043Z,3.77
2023-03-06T21:12:38.120Z,3.89
2023-03-06T21:17:40.190Z,3.92
2023-03-06T21:22:42.256Z,3.99
2023-03-06T21:27:44.405Z,3.97
2023-03-06T21:32:46.796Z,3.99
2023-03-06T21:37:49.246Z,3.93
2023-03-06T21:42:51.715Z,3.92
2023-03-06T21:47:53.857Z,3.77
2023-03-06T21:52:59.116Z,3.60
2023-03-06T21:58:01.562Z,3.72
2023-03-06T22:03:04.910Z,3.72
2023-03-06T22:08:07.140Z,3.77
2023-03-06T22:13:11.282Z,3.81
2023-03-06T22:18:15.955Z,3.89
2023-03-06T22:23:18.617Z,3.85
2023-03-06T22:29:03.298Z,3.78
2023-03-06T22:34:10.396Z,3.77
2023-03-06T22:39:17.650Z,3.67
2023-03-06T22:44:32.424Z,3.50
2023-03-06T23:20:52.061Z,3.31
2023-03-06T23:26:02.052Z,3.38
2023-03-06T23:31:15.318Z,3.17
2023-03-06T23:36:18.758Z,3.21
2023-03-06T23:41:24.089Z,3.13
2023-03-06T23:46:26.562Z,3.01
2023-03-06T23:51:28.705Z,2.75
2023-03-06T23:56:30.860Z,2.69
